Weather observations for the past three days for
Takotna, Tatalina LRRS Airport
Metric (Imperial)
Date Time (akdt) Wind (kph) Vis. (km) Weather Sky Cond. Temperature (ºC) Relative Humidity Wind Chill (°C) Heat Index (°C) Pressure Precipitation (cm)
Air Dwpt 6 hour altimeter (cm) sea level (mb) 1 hr 3 hr 6 hr
Max. Min.
04 18:55 E 13 11.27 Light Rain OVC005 3 2.9 99% 0 75.44 1006.9 0.15 0.36
04 17:55 Vrbl 9 9.66 Light Rain OVC007 3 3 100% 1 75.49 1007.7 0.15
04 16:55 E 19 12.87 Light Rain OVC009 4 3 93% 0 75.57 1008.5 0.08
04 15:55 Vrbl 11 16.09 Light Rain BKN010 4.2 3.5 7 1.3 95% 2 75.64 1009.6 0.08 0.08
04 14:55 E 15 G 26 12.87 Light Showers Rain OVC023 5 2 81% 2 75.72 1010.6 0.03
04 13:55 E 15 16.09 Mostly Cloudy BKN034 7 0 61% 5 75.77 1011.1
04 12:55 E 11 16.09 Overcast OVC036 6.1 -0.4 63% 4 75.84 1012.0
04 11:55 Vrbl 7 16.09 Overcast OVC042 5 0 70% 4 75.9 1012.8
04 10:55 E 7 16.09 Mostly Cloudy BKN043 4 0 75% 2 75.95 1013.7
04 09:55 Calm 16.09 Overcast OVC041 1.5 -0.7 2.4 0.2 85% 76 1014.5
04 08:55 E 4 16.09 Mostly Cloudy BKN048 2 -1 81% 76.05 1014.8
04 07:55 Calm 16.09 Mostly Cloudy SCT065 BKN160 1 -1 87% 76.07 1015.3
04 06:55 Calm 16.09 Mostly Cloudy BKN055 0.5 -0.8 91% 76.12 1016.0
04 05:55 E 4 16.09 Mostly Cloudy FEW041 FEW055 SCT170 BKN200 1 -1 87% 76.15 1016.3
04 04:55 Calm 16.09 Partly Cloudy SCT160 SCT210 2 -1 81% 76.17 1016.5
04 03:55 Calm 16.09 Mostly Cloudy BKN045 2.1 -0.6 5 1.6 83% 76.2 1016.8
04 02:55 E 4 16.09 Mostly Cloudy BKN046 2 -1 81% 76.23 1017.2
04 01:55 Calm 16.09 Fair CLR 2 -1 81% 76.25 1017.6
04 00:55 E 4 16.09 Partly Cloudy SCT070 1.8 -0.5 85% 76.28 1017.9
03 23:55 Calm 16.09 Fair CLR 4 0 75% 76.28 1017.8
03 22:55 E 2 16.09 Fair CLR 4 0 75% 76.28 1018.1
03 21:55 Calm 16.09 Partly Cloudy SCT050 4.8 -0.3 7.4 5 70% 76.28 1017.9
03 20:55 Vrbl 6 16.09 Light Showers Rain FEW032 BKN044 6 0 66% 76.28 1018.0
03 19:55 Vrbl 6 16.09 Mostly Cloudy BKN033 BKN070 7 0 61% 76.28 1018.0
03 18:55 Vrbl 6 16.09 Mostly Cloudy BKN046 6.6 -0.3 62% 76.3 1018.2
03 17:55 Vrbl 9 16.09 Mostly Cloudy BKN065 6 -1 61% 4 76.3 1018.5
03 16:55 Vrbl 11 16.09 Mostly Cloudy BKN055 6 0 66% 4 76.35 1019.0
03 15:55 Vrbl 7 16.09 Mostly Cloudy BKN060 6.2 -1.5 6.2 2.5 58% 5 76.35 1019.0
03 14:55 Vrbl 11 16.09 Light Showers Rain BKN046 6 0 66% 4 76.38 1019.2
03 13:55 Vrbl 7 16.09 Mostly Cloudy BKN060 6 -1 61% 5 76.38 1019.3
03 12:55 Vrbl 11 16.09 Mostly Cloudy BKN035 5.2 -1.2 64% 3 76.38 1019.4
03 11:55 Vrbl 6 16.09 Mostly Cloudy BKN036 5 0 70% 76.4 1019.5
03 10:55 NE 13 16.09 Mostly Cloudy BKN017 BKN065 4 0 75% 1 76.4 1019.6
03 09:55 Vrbl 6 16.09 Mostly Cloudy BKN012 2.5 1.1 2.5 0.5 91% 76.4 1019.5
03 08:55 E 4 16.09 Mostly Cloudy BKN010 2 1 93% 76.38 1019.3
03 07:55 Vrbl 4 16.09 Mostly Cloudy BKN010 1 1 100% 76.35 1019.1
03 06:55 Vrbl 7 16.09 Mostly Cloudy FEW011 FEW033 BKN037 BKN065 0.6 -0.1 95% -1 76.33 1018.9
03 05:55 Vrbl 4 16.09 Mostly Cloudy SCT032 BKN055 1 0 93% 76.33 1018.8
03 04:55 Vrbl 9 16.09 Overcast SCT026 BKN041 OVC047 1 0 93% -2 76.3 1018.5
03 03:55 NE 13 16.09 Mostly Cloudy FEW002 BKN032 1.4 1.3 4.4 1.6 99% -2 76.25 1017.9
03 02:55 Vrbl 7 16.09 Mostly Cloudy BKN031 2 0 87% 0 76.23 1017.6
03 01:55 NE 9 16.09 Overcast OVC034 2 1 93% -0 76.2 1017.2
03 00:55 Vrbl 9 16.09 Mostly Cloudy BKN035 BKN046 3.1 -0.6 77% 1 76.15 1016.5
02 23:55 Vrbl 7 16.09 Mostly Cloudy BKN040 BKN110 4 0 75% 2 76.12 1015.9
02 22:55 Vrbl 6 16.09 Mostly Cloudy BKN038 4 0 75% 76.07 1015.4
02 21:55 NE 13 16.09 Mostly Cloudy FEW041 BKN080 4.3 -0.6 4.9 2.6 71% 2 76.02 1014.6
02 20:55 NE 19 16.09 Mostly Cloudy BKN050 BKN095 5 -1 66% 2 75.97 1014.0
02 19:55 NE 30 G 37 16.09 Mostly Cloudy SCT023 BKN039 BKN050 5 0 70% 0 75.95 1013.7
02 18:55 NE 24 G 41 16.09 Mostly Cloudy BKN020 4.7 0.8 76% 1 75.92 1013.3
02 17:55 NE 22 16.09 Overcast OVC012 4 2 87% -0 75.9 1013.0
02 16:55 NE 19 16.09 Light Showers Rain OVC012 4 2 87% 0 75.87 1012.6
02 15:55 NE 19 9.66 Light Showers Rain OVC010 2.7 2.1 2.8 1.2 96% -1 75.82 1012.2 0.05
02 14:55 NE 20 16.09 Light Drizzle OVC008 3 2 93% -1 75.79 1011.7 0.03
02 13:55 NE 24 G 37 16.09 Light Rain OVC009 2 2 100% -3 75.74 1011.0
02 12:55 NE 24 G 31 16.09 Light Rain OVC008 1.7 1.2 97% -3 75.69 1010.4 0.03 0.03
02 11:55 NE 20 12.87 Light Showers Snow OVC008 1 1 100% -4 75.62 1009.4
02 10:55 NE 19 16.09 Overcast OVC008 1 1 100% -3 75.54 1008.1
02 09:55 NE 20 16.09 Light Rain OVC005 1.3 1.2 1.6 1 99% -3 75.44 1006.9
02 08:55 NE 17 16.09 Light Drizzle OVC007 2 1 93% -2 75.34 1005.7
02 07:55 NE 28 16.09 Overcast OVC008 1 1 100% -5 75.29 1004.9
02 06:55 NE 24 16.09 Overcast OVC005 1.3 1.2 99% -4 75.26 1004.3
02 05:55 NE 19 16.09 Overcast OVC006 1 1 100% -3 75.16 1003.2
02 04:55 NE 22 16.09 Light Showers Rain OVC005 1 1 100% -4 75.11 1002.2
02 03:55 NE 20 16.09 Light Rain OVC004 1.1 1.1 2.8 1 100% -3 75.03 1001.3 0.03 0.13
02 02:55 NE 22 16.09 Light Showers Rain OVC005 1 1 100% -4 74.98 1000.3
02 01:55 NE 20 12.87 Light Drizzle OVC004 2 2 100% -2 74.9 999.4
01 23:55 E 11 11.27 Light Rain OVC008 2 2 100% -1 74.78 997.7 0.03
01 22:55 Vrbl 9 12.87 Light Rain OVC004 2 2 100% -0 74.73 996.9 0.05
01 21:55 Vrbl 9 16.09 Light Rain OVC009 2.7 2.4 6 2.8 98% 0 74.68 996.3 0.05 0.18
01 20:55 E 2 16.09 Light Rain OVC012 3 3 100% 74.63 995.8 0.05
01 19:55 Calm 16.09 Light Rain OVC013 4 3 93% 74.6 995.4 0.05
Date Time (akdt) Wind (kph) Vis. (km) Weather Sky Cond. Air Dwpt Max. Min. Relative Humidity Wind Chill (°C) Heat Index (°C) altimeter (cm) sea level (mb) 1 hr 3 hr 6 hr
6 hour
Temperature (ºC) Pressure Precipitation (cm)